createdAt,value
2023-05-16T00:00:21.276Z,11.60
2023-05-16T00:02:49.887Z,11.60
2023-05-16T00:05:18.775Z,11.60
2023-05-16T00:07:48.416Z,11.60
2023-05-16T00:10:16.762Z,11.60
2023-05-16T00:12:45.156Z,11.60
2023-05-16T00:15:15.771Z,11.60
2023-05-16T00:17:47.021Z,11.50
2023-05-16T00:20:17.458Z,11.50
2023-05-16T00:22:46.377Z,11.50
2023-05-16T00:25:14.752Z,11.50
2023-05-16T00:27:43.138Z,11.50
2023-05-16T00:30:12.294Z,11.50
2023-05-16T00:32:42.760Z,11.50
2023-05-16T00:35:12.581Z,11.50
2023-05-16T00:37:41.598Z,11.50
2023-05-16T00:40:10.859Z,11.50
2023-05-16T00:42:39.697Z,11.50
2023-05-16T00:45:09.204Z,11.50
2023-05-16T00:47:38.095Z,11.50
2023-05-16T00:50:09.407Z,11.50
2023-05-16T00:52:37.936Z,11.60
2023-05-16T00:55:07.288Z,11.60
2023-05-16T00:57:35.984Z,11.60
2023-05-16T01:00:06.822Z,11.60
2023-05-16T01:02:38.681Z,11.60
2023-05-16T01:05:09.471Z,11.60
2023-05-16T01:07:38.165Z,11.60
2023-05-16T01:10:10.188Z,11.60
2023-05-16T01:12:43.424Z,11.60
2023-05-16T01:15:16.578Z,11.60
2023-05-16T01:17:55.930Z,11.60
2023-05-16T01:20:34.960Z,11.70
2023-05-16T01:23:25.371Z,11.70
2023-05-16T01:26:03.205Z,11.70
2023-05-16T01:28:34.259Z,11.70
2023-05-16T01:31:03.615Z,11.70
2023-05-16T01:33:32.042Z,11.70
2023-05-16T01:36:07.827Z,11.70
2023-05-16T01:38:43.593Z,11.70
2023-05-16T01:41:21.399Z,11.60
2023-05-16T01:43:58.432Z,11.60
2023-05-16T01:46:30.965Z,11.60
2023-05-16T01:49:07.427Z,11.60
2023-05-16T01:51:40.580Z,11.60
2023-05-16T01:54:14.925Z,11.60
2023-05-16T01:56:46.132Z,11.60
2023-05-16T01:59:16.454Z,11.60
2023-05-16T02:01:45.079Z,11.60
2023-05-16T02:04:15.399Z,11.60
2023-05-16T02:06:44.019Z,11.60
2023-05-16T02:09:12.481Z,11.60
2023-05-16T02:11:42.374Z,11.60
2023-05-16T02:14:11.161Z,11.60
2023-05-16T02:16:41.006Z,11.60
2023-05-16T02:19:09.546Z,11.60
2023-05-16T02:21:40.486Z,11.60
2023-05-16T02:24:09.140Z,11.60
2023-05-16T02:26:37.553Z,11.60
2023-05-16T02:29:06.637Z,11.60
2023-05-16T02:31:35.983Z,11.70
2023-05-16T02:34:05.810Z,11.60
2023-05-16T02:36:34.480Z,11.70
2023-05-16T02:39:04.234Z,11.70
2023-05-16T02:41:33.273Z,11.70
2023-05-16T02:44:01.606Z,11.70
2023-05-16T02:46:32.089Z,11.70
2023-05-16T02:49:01.635Z,11.70
2023-05-16T02:51:31.486Z,11.80
2023-05-16T02:54:01.200Z,11.80
2023-05-16T02:56:29.620Z,11.80
2023-05-16T02:58:58.051Z,11.80
2023-05-16T03:01:26.497Z,11.80
2023-05-16T03:03:55.017Z,11.80
2023-05-16T03:06:23.761Z,11.80
2023-05-16T03:08:53.532Z,11.80
2023-05-16T03:11:23.102Z,11.80
2023-05-16T03:13:51.726Z,11.90
2023-05-16T03:16:20.183Z,11.90
2023-05-16T03:18:48.684Z,11.90
2023-05-16T03:21:17.223Z,11.90
2023-05-16T03:23:46.602Z,11.90
2023-05-16T03:26:16.424Z,11.90
2023-05-16T03:28:44.824Z,11.90
2023-05-16T03:31:13.274Z,11.90
2023-05-16T03:33:42.121Z,11.90
2023-05-16T03:36:11.560Z,12.00
2023-05-16T03:38:39.974Z,11.90
2023-05-16T03:41:08.476Z,11.90
2023-05-16T03:43:38.384Z,11.90
2023-05-16T03:46:06.805Z,11.90
2023-05-16T03:48:35.234Z,11.90
2023-05-16T03:51:03.667Z,11.90
2023-05-16T03:53:32.152Z,11.90
2023-05-16T03:56:01.006Z,11.90
2023-05-16T03:58:29.381Z,11.90
2023-05-16T04:00:59.114Z,11.90
2023-05-16T04:03:29.046Z,11.90
2023-05-16T04:05:57.728Z,11.90
2023-05-16T04:08:26.280Z,12.00
2023-05-16T04:10:54.743Z,12.00
2023-05-16T04:13:23.125Z,12.00
2023-05-16T04:15:51.847Z,12.10
2023-05-16T04:18:21.588Z,12.10
2023-05-16T04:20:50.242Z,12.10
2023-05-16T04:23:18.733Z,12.10
2023-05-16T04:25:47.173Z,12.10
2023-05-16T04:28:15.741Z,12.20
2023-05-16T04:30:44.233Z,12.30
2023-05-16T04:33:12.758Z,12.30
2023-05-16T04:35:42.508Z,12.40
2023-05-16T04:38:11.052Z,12.40
2023-05-16T04:40:40.476Z,12.50
2023-05-16T04:43:09.208Z,12.60
2023-05-16T04:45:38.025Z,12.60
2023-05-16T04:48:06.872Z,12.60
2023-05-16T04:50:35.551Z,12.70
2023-05-16T04:53:05.488Z,12.70
2023-05-16T04:55:33.983Z,12.80
2023-05-16T04:58:02.450Z,12.80
2023-05-16T05:00:30.912Z,12.90
2023-05-16T05:02:59.405Z,13.00
2023-05-16T05:05:28.361Z,13.10
2023-05-16T05:07:57.036Z,13.10
2023-05-16T05:10:28.041Z,13.20
2023-05-16T05:12:56.546Z,13.30
2023-05-16T05:15:25.154Z,13.40
2023-05-16T05:17:53.943Z,13.50
2023-05-16T05:20:23.475Z,13.60
2023-05-16T05:22:51.932Z,13.70
2023-05-16T05:25:20.299Z,13.70
2023-05-16T05:27:50.059Z,13.80
2023-05-16T05:30:18.445Z,13.80
2023-05-16T05:32:46.922Z,13.90
2023-05-16T05:35:15.699Z,14.00
2023-05-16T05:37:44.129Z,14.00
2023-05-16T05:40:13.004Z,14.10
2023-05-16T05:42:41.684Z,14.10
2023-05-16T05:45:12.310Z,14.10
2023-05-16T05:47:40.844Z,14.20
2023-05-16T05:50:11.712Z,14.20
2023-05-16T05:52:40.419Z,14.20
2023-05-16T05:55:09.239Z,14.30
2023-05-16T05:57:38.041Z,14.30
2023-05-16T06:00:07.389Z,14.40
2023-05-16T06:02:40.631Z,14.40
2023-05-16T06:05:09.986Z,14.40
2023-05-16T06:07:38.517Z,14.50
2023-05-16T06:10:08.701Z,14.50
2023-05-16T06:12:37.239Z,14.60
2023-05-16T06:15:06.017Z,14.60
2023-05-16T06:17:34.505Z,14.70
2023-05-16T06:20:05.074Z,14.70
2023-05-16T06:22:33.471Z,14.70
2023-05-16T06:25:01.928Z,14.80
2023-05-16T06:27:30.342Z,14.80
2023-05-16T06:29:59.792Z,14.70
2023-05-16T06:32:28.202Z,14.70
2023-05-16T06:34:57.187Z,14.70
2023-05-16T06:37:27.274Z,14.60
2023-05-16T06:39:56.059Z,14.60
2023-05-16T06:42:24.484Z,14.60
2023-05-16T06:44:52.955Z,14.60
2023-05-16T06:47:21.679Z,14.60
2023-05-16T06:49:50.810Z,14.60
2023-05-16T06:52:19.304Z,14.60
2023-05-16T06:54:49.096Z,14.60
2023-05-16T06:57:17.646Z,14.50
2023-05-16T06:59:46.130Z,14.50
2023-05-16T07:02:14.618Z,14.50
2023-05-16T07:04:43.161Z,14.40
2023-05-16T07:07:11.593Z,14.40
2023-05-16T07:09:40.046Z,14.30
2023-05-16T07:12:10.678Z,14.30
2023-05-16T07:14:39.133Z,14.30
2023-05-16T07:17:07.747Z,14.20
2023-05-16T07:19:36.333Z,14.20
2023-05-16T07:22:05.109Z,14.20
2023-05-16T07:24:33.436Z,14.20
2023-05-16T07:27:01.875Z,14.10
2023-05-16T07:29:31.827Z,14.10
2023-05-16T07:32:00.343Z,14.10
2023-05-16T07:34:28.761Z,14.10
2023-05-16T07:36:57.793Z,14.10
2023-05-16T07:39:26.677Z,14.10
2023-05-16T07:41:54.998Z,14.10
2023-05-16T07:44:23.710Z,14.10
2023-05-16T07:46:53.492Z,14.10
2023-05-16T07:49:21.942Z,14.10
2023-05-16T07:51:50.452Z,14.10
2023-05-16T07:54:18.922Z,14.10
2023-05-16T07:56:47.331Z,14.20
2023-05-16T07:59:15.937Z,14.20
2023-05-16T08:01:44.523Z,14.30
2023-05-16T08:04:14.430Z,14.30
2023-05-16T08:06:42.894Z,14.30
2023-05-16T08:09:11.382Z,14.40
2023-05-16T08:11:40.652Z,14.40
2023-05-16T08:14:09.207Z,14.40
2023-05-16T08:16:37.790Z,14.40
2023-05-16T08:19:06.563Z,14.40
2023-05-16T08:21:36.351Z,14.30
2023-05-16T08:24:05.680Z,14.30
2023-05-16T08:26:34.751Z,14.30
2023-05-16T08:29:03.175Z,14.30
2023-05-16T08:31:31.840Z,14.30
2023-05-16T08:34:01.741Z,14.20
2023-05-16T08:36:30.130Z,14.20
2023-05-16T08:38:59.799Z,14.20
2023-05-16T08:41:28.435Z,14.20
2023-05-16T08:43:56.932Z,14.20
2023-05-16T08:46:25.661Z,14.20
2023-05-16T08:48:55.292Z,14.20
2023-05-16T08:51:28.446Z,14.30
2023-05-16T08:54:08.080Z,14.30
2023-05-16T08:56:37.545Z,14.30
2023-05-16T08:59:06.405Z,14.40
2023-05-16T09:01:35.796Z,14.40
2023-05-16T09:04:05.169Z,14.40
2023-05-16T09:06:33.693Z,14.50
2023-05-16T09:09:02.687Z,14.50
2023-05-16T09:11:33.064Z,14.60
2023-05-16T09:14:02.611Z,14.60
2023-05-16T09:16:31.451Z,14.60
2023-05-16T09:19:02.048Z,14.70
2023-05-16T09:21:33.263Z,14.80
2023-05-16T09:24:06.014Z,14.80
2023-05-16T09:26:39.688Z,15.00
2023-05-16T09:29:13.166Z,15.00
2023-05-16T09:31:41.992Z,15.10
2023-05-16T09:34:13.022Z,15.20
2023-05-16T09:36:43.653Z,15.30
2023-05-16T09:39:16.646Z,15.30
2023-05-16T09:41:46.494Z,15.40
2023-05-16T09:44:14.888Z,15.50
2023-05-16T09:46:43.452Z,15.50
2023-05-16T09:49:13.966Z,15.50
2023-05-16T09:51:43.029Z,15.50
2023-05-16T09:54:11.488Z,15.50
2023-05-16T09:56:51.789Z,15.50
2023-05-16T09:59:20.157Z,15.60
2023-05-16T10:01:51.054Z,15.50
2023-05-16T10:04:19.641Z,15.50
2023-05-16T10:06:49.138Z,15.50
2023-05-16T10:09:19.097Z,15.40
2023-05-16T10:11:49.666Z,15.40
2023-05-16T10:14:20.874Z,15.30
2023-05-16T10:16:50.792Z,15.30
2023-05-16T10:19:23.033Z,15.20
2023-05-16T10:21:55.601Z,15.20
2023-05-16T10:24:27.875Z,15.20
2023-05-16T10:26:56.347Z,15.10
2023-05-16T10:29:27.046Z,15.10
2023-05-16T10:31:56.266Z,15.10
2023-05-16T10:34:25.011Z,15.10
2023-05-16T10:36:54.558Z,15.10
2023-05-16T10:39:23.897Z,15.20
2023-05-16T10:41:52.574Z,15.20
2023-05-16T10:44:21.060Z,15.20
2023-05-16T10:46:51.063Z,15.20
2023-05-16T10:49:24.186Z,15.20
2023-05-16T10:52:08.818Z,15.20
2023-05-16T10:54:38.252Z,15.20
2023-05-16T10:57:08.317Z,15.20
2023-05-16T10:59:47.813Z,15.20
2023-05-16T11:02:29.398Z,15.20
2023-05-16T11:05:00.214Z,15.20
2023-05-16T11:07:34.392Z,15.20
2023-05-16T11:10:08.312Z,15.10
2023-05-16T11:12:44.605Z,15.10
2023-05-16T11:15:22.033Z,15.10
2023-05-16T11:17:52.254Z,15.10
2023-05-16T11:20:28.104Z,15.10
2023-05-16T11:23:21.414Z,15.10
2023-05-16T11:25:54.115Z,15.10
2023-05-16T11:28:23.401Z,15.00
2023-05-16T11:30:55.389Z,15.10
2023-05-16T11:33:27.713Z,15.00
2023-05-16T11:36:15.843Z,15.00
2023-05-16T11:38:45.683Z,15.00
2023-05-16T11:41:16.867Z,15.00
2023-05-16T11:43:46.976Z,15.00
2023-05-16T11:46:17.022Z,14.90
2023-05-16T11:48:47.592Z,14.90
2023-05-16T11:51:20.541Z,14.90
2023-05-16T11:53:50.897Z,14.80
2023-05-16T11:56:19.723Z,14.80
2023-05-16T11:58:48.417Z,14.70
2023-05-16T12:01:17.090Z,14.70
2023-05-16T12:03:55.122Z,14.60
2023-05-16T12:06:23.661Z,14.60
2023-05-16T12:08:52.670Z,14.50
2023-05-16T12:11:22.169Z,14.50
2023-05-16T12:13:51.049Z,14.40
2023-05-16T12:16:19.992Z,14.40
2023-05-16T12:18:50.948Z,14.40
2023-05-16T12:21:19.423Z,14.40
2023-05-16T12:23:47.850Z,14.30
2023-05-16T12:26:16.226Z,14.30
2023-05-16T12:28:44.983Z,14.30
2023-05-16T12:31:31.213Z,14.30
2023-05-16T12:34:02.225Z,14.30
2023-05-16T12:36:33.951Z,14.20
2023-05-16T12:39:03.735Z,14.20
2023-05-16T12:41:32.900Z,14.20
2023-05-16T12:44:19.450Z,14.20
2023-05-16T12:46:51.927Z,14.20
2023-05-16T12:49:23.246Z,14.10
2023-05-16T12:51:52.691Z,14.20
2023-05-16T12:54:23.119Z,14.20
2023-05-16T12:56:51.704Z,14.10
2023-05-16T12:59:20.760Z,14.10
2023-05-16T13:01:49.321Z,14.10
2023-05-16T13:04:20.312Z,14.10
2023-05-16T13:09:21.870Z,14.20
2023-05-16T13:11:50.631Z,14.10
2023-05-16T13:14:19.034Z,14.20
2023-05-16T13:16:47.281Z,14.10
2023-05-16T13:19:15.775Z,14.20
2023-05-16T13:21:44.107Z,14.20
2023-05-16T13:24:13.787Z,14.20
2023-05-16T13:26:42.589Z,14.20
2023-05-16T13:29:11.889Z,14.20
2023-05-16T13:31:40.572Z,14.20
2023-05-16T13:34:08.989Z,14.20
2023-05-16T13:36:52.318Z,14.20
2023-05-16T13:39:23.652Z,14.30
2023-05-16T13:41:52.728Z,14.30
2023-05-16T13:44:22.646Z,14.30
2023-05-16T13:46:51.459Z,14.30
2023-05-16T13:49:20.119Z,14.30
2023-05-16T13:51:48.663Z,14.30
2023-05-16T13:54:17.185Z,14.40
2023-05-16T13:56:47.239Z,14.40
2023-05-16T13:59:20.796Z,14.40
2023-05-16T14:02:01.299Z,14.40
2023-05-16T14:04:29.801Z,14.50
2023-05-16T14:06:58.335Z,14.60
2023-05-16T14:09:26.855Z,14.60
2023-05-16T14:11:56.554Z,14.60
2023-05-16T14:14:25.044Z,14.60
2023-05-16T14:16:53.622Z,14.70
2023-05-16T14:19:22.185Z,14.70
2023-05-16T14:21:50.703Z,14.70
2023-05-16T14:24:19.207Z,14.80
2023-05-16T14:26:47.633Z,14.90
2023-05-16T14:29:17.273Z,14.90
2023-05-16T14:31:45.765Z,14.90
2023-05-16T14:34:14.195Z,15.00
2023-05-16T14:36:43.722Z,15.00
2023-05-16T14:39:12.511Z,15.10
2023-05-16T14:41:41.023Z,15.10
2023-05-16T14:44:09.837Z,15.20
2023-05-16T14:46:39.678Z,15.20
2023-05-16T14:49:09.151Z,15.20
2023-05-16T14:51:37.654Z,15.30
2023-05-16T14:54:06.608Z,15.30
2023-05-16T14:56:34.995Z,15.30
2023-05-16T14:59:03.476Z,15.30
2023-05-16T15:01:31.908Z,15.30
2023-05-16T15:04:01.737Z,15.40
2023-05-16T15:06:30.577Z,15.40
2023-05-16T15:08:59.006Z,15.40
2023-05-16T15:11:27.430Z,15.50
2023-05-16T15:13:57.201Z,15.50
2023-05-16T15:16:25.743Z,15.50
2023-05-16T15:18:54.281Z,15.50
2023-05-16T15:21:24.271Z,15.60
2023-05-16T15:23:52.783Z,15.60
2023-05-16T15:26:22.469Z,15.60
2023-05-16T15:28:50.974Z,15.60
2023-05-16T15:31:19.318Z,15.60
2023-05-16T15:33:48.546Z,15.70
2023-05-16T15:36:17.174Z,15.70
2023-05-16T15:38:47.650Z,15.70
2023-05-16T15:41:27.123Z,15.70
2023-05-16T15:44:00.982Z,15.70
2023-05-16T15:46:30.580Z,15.70
2023-05-16T15:48:59.154Z,15.80
2023-05-16T15:51:27.678Z,15.80
2023-05-16T15:53:57.322Z,15.80
2023-05-16T15:56:25.811Z,15.80
2023-05-16T15:58:56.276Z,15.80
2023-05-16T16:01:24.693Z,15.80
2023-05-16T16:03:55.904Z,15.80
2023-05-16T16:06:24.584Z,15.80
2023-05-16T16:08:53.325Z,15.80
2023-05-16T16:11:23.451Z,15.80
2023-05-16T16:13:52.290Z,15.70
2023-05-16T16:16:20.747Z,15.70
2023-05-16T16:18:50.151Z,15.70
2023-05-16T16:21:18.867Z,15.70
2023-05-16T16:23:47.383Z,15.70
2023-05-16T16:26:15.817Z,15.70
2023-05-16T16:28:45.812Z,15.70
2023-05-16T16:31:14.191Z,15.70
2023-05-16T16:33:42.554Z,15.70
2023-05-16T16:36:11.476Z,15.70
2023-05-16T16:38:39.996Z,15.80
2023-05-16T16:41:08.465Z,15.80
2023-05-16T16:43:39.759Z,15.80
2023-05-16T16:46:09.715Z,15.80
2023-05-16T16:48:38.426Z,15.80
2023-05-16T16:51:06.893Z,15.80
2023-05-16T16:53:37.884Z,15.80
2023-05-16T16:56:06.675Z,15.80
2023-05-16T16:58:35.011Z,15.80
2023-05-16T17:01:04.032Z,15.80
2023-05-16T17:03:34.036Z,15.80
2023-05-16T17:06:02.560Z,15.70
2023-05-16T17:08:31.068Z,15.70
2023-05-16T17:10:59.941Z,15.60
2023-05-16T17:13:33.598Z,15.60
2023-05-16T17:16:02.557Z,15.50
2023-05-16T17:18:33.897Z,15.50
2023-05-16T17:21:04.562Z,15.40
2023-05-16T17:23:33.798Z,15.40
2023-05-16T17:26:02.356Z,15.40
2023-05-16T17:28:32.485Z,15.40
2023-05-16T17:31:04.261Z,15.30
2023-05-16T17:33:32.951Z,15.30
2023-05-16T17:36:01.352Z,15.30
2023-05-16T17:38:31.164Z,15.20
2023-05-16T17:40:59.674Z,15.20
2023-05-16T17:43:28.178Z,15.10
2023-05-16T17:45:56.522Z,15.10
2023-05-16T17:48:25.030Z,15.10
2023-05-16T17:50:53.530Z,15.10
2023-05-16T17:53:22.021Z,15.00
2023-05-16T17:55:51.794Z,15.00
2023-05-16T17:58:20.306Z,15.00
2023-05-16T18:00:49.519Z,15.00
2023-05-16T18:03:18.121Z,15.00
2023-05-16T18:05:46.632Z,15.00
2023-05-16T18:08:15.166Z,15.00
2023-05-16T18:13:20.217Z,14.90
2023-05-16T18:15:48.786Z,14.90
2023-05-16T18:18:17.979Z,14.90
2023-05-16T18:20:47.228Z,14.90
2023-05-16T18:23:15.695Z,14.90
2023-05-16T18:25:44.136Z,14.90
2023-05-16T18:28:12.577Z,14.90
2023-05-16T18:30:42.391Z,14.90
2023-05-16T18:33:11.287Z,14.90
2023-05-16T18:35:39.707Z,14.90
2023-05-16T18:38:12.368Z,14.80
2023-05-16T18:40:50.535Z,14.80
2023-05-16T18:43:19.013Z,14.80
2023-05-16T18:45:51.966Z,14.80
2023-05-16T18:48:20.645Z,14.80
2023-05-16T18:50:50.339Z,14.80
2023-05-16T18:53:18.753Z,14.80
2023-05-16T18:55:49.808Z,14.80
2023-05-16T18:58:19.078Z,14.80
2023-05-16T19:00:49.314Z,14.80
2023-05-16T19:03:18.173Z,14.80
2023-05-16T19:05:46.978Z,14.80
2023-05-16T19:08:15.687Z,14.80
2023-05-16T19:10:44.147Z,14.80
2023-05-16T19:13:12.542Z,14.80
2023-05-16T19:15:41.090Z,14.80
2023-05-16T19:18:10.992Z,14.80
2023-05-16T19:20:39.513Z,14.80
2023-05-16T19:23:08.494Z,14.80
2023-05-16T19:25:37.020Z,14.80
2023-05-16T19:28:05.771Z,14.80
2023-05-16T19:30:34.201Z,14.80
2023-05-16T19:33:02.918Z,14.80
2023-05-16T19:35:32.838Z,14.80
2023-05-16T19:38:01.406Z,14.80
2023-05-16T19:40:29.957Z,14.80
2023-05-16T19:42:58.434Z,14.80
2023-05-16T19:45:27.154Z,14.80
2023-05-16T19:47:55.848Z,14.80
2023-05-16T19:50:24.240Z,14.80
2023-05-16T19:52:53.959Z,14.80
2023-05-16T19:55:24.967Z,14.80
2023-05-16T19:57:53.441Z,14.80
2023-05-16T20:00:22.108Z,14.80
2023-05-16T20:02:50.733Z,14.80
2023-05-16T20:05:20.136Z,14.80
2023-05-16T20:07:48.985Z,14.80
2023-05-16T20:10:20.439Z,14.80
2023-05-16T20:12:50.390Z,14.80
2023-05-16T20:15:18.963Z,14.80
2023-05-16T20:17:47.531Z,14.80
2023-05-16T20:20:16.510Z,14.80
2023-05-16T20:22:44.923Z,14.70
2023-05-16T20:25:14.113Z,14.70
2023-05-16T20:27:43.858Z,14.70
2023-05-16T20:30:12.904Z,14.70
2023-05-16T20:32:41.613Z,14.80
2023-05-16T20:35:11.416Z,14.80
2023-05-16T20:37:41.320Z,14.80
2023-05-16T20:40:10.720Z,14.80
2023-05-16T20:42:39.598Z,14.80
2023-05-16T20:45:10.200Z,14.80
2023-05-16T20:47:38.686Z,14.80
2023-05-16T20:50:08.005Z,14.90
2023-05-16T20:52:36.628Z,14.90
2023-05-16T20:55:05.356Z,14.90
2023-05-16T20:57:34.074Z,14.90
2023-05-16T21:00:02.537Z,14.90
2023-05-16T21:02:32.326Z,14.90
2023-05-16T21:05:14.436Z,14.90
2023-05-16T21:07:48.546Z,14.90
2023-05-16T21:10:17.031Z,15.00
2023-05-16T21:12:45.680Z,15.00
2023-05-16T21:15:14.021Z,14.90
2023-05-16T21:17:43.795Z,14.90
2023-05-16T21:20:12.816Z,14.90
2023-05-16T21:22:41.516Z,15.00
2023-05-16T21:25:10.591Z,14.90
2023-05-16T21:27:39.962Z,14.90
2023-05-16T21:30:09.170Z,14.90
2023-05-16T21:32:37.580Z,14.90
2023-05-16T21:35:08.951Z,14.90
2023-05-16T21:37:37.488Z,14.90
2023-05-16T21:40:09.197Z,14.90
2023-05-16T21:42:37.734Z,14.90
2023-05-16T21:45:12.570Z,14.90
2023-05-16T21:47:41.136Z,14.80
2023-05-16T21:50:11.729Z,14.80
2023-05-16T21:52:40.728Z,14.80
2023-05-16T21:55:10.105Z,14.80
2023-05-16T21:57:38.548Z,14.80
2023-05-16T22:00:09.784Z,14.80
2023-05-16T22:02:38.707Z,14.80
2023-05-16T22:05:08.168Z,14.90
2023-05-16T22:07:38.611Z,14.90
2023-05-16T22:10:07.946Z,14.90
2023-05-16T22:12:36.387Z,14.90
2023-05-16T22:15:05.434Z,14.90
2023-05-16T22:17:34.078Z,14.90
2023-05-16T22:20:03.493Z,14.90
2023-05-16T22:22:32.016Z,14.90
2023-05-16T22:25:02.299Z,14.90
2023-05-16T22:27:30.881Z,14.90
2023-05-16T22:29:59.220Z,14.90
2023-05-16T22:32:27.767Z,14.80
2023-05-16T22:34:56.249Z,14.80
2023-05-16T22:37:24.720Z,14.80
2023-05-16T22:39:53.645Z,14.80
2023-05-16T22:42:23.387Z,14.80
2023-05-16T22:44:51.729Z,14.80
2023-05-16T22:47:20.038Z,14.80
2023-05-16T22:49:48.389Z,14.80
2023-05-16T22:52:16.757Z,14.80
2023-05-16T22:54:45.143Z,14.80
2023-05-16T22:57:13.571Z,14.80
2023-05-16T22:59:43.984Z,14.80
2023-05-16T23:02:12.717Z,14.80
2023-05-16T23:04:41.586Z,14.80
2023-05-16T23:07:09.990Z,14.90
2023-05-16T23:09:38.531Z,14.90
2023-05-16T23:12:07.229Z,14.90
2023-05-16T23:14:35.693Z,14.90
2023-05-16T23:17:05.585Z,14.90
2023-05-16T23:19:34.267Z,14.90
2023-05-16T23:22:03.674Z,14.90
2023-05-16T23:24:32.083Z,14.90
2023-05-16T23:27:00.806Z,15.00
2023-05-16T23:29:29.133Z,15.00
2023-05-16T23:31:57.653Z,15.00
2023-05-16T23:34:27.324Z,15.00
2023-05-16T23:36:55.968Z,15.10
2023-05-16T23:39:24.486Z,15.00
2023-05-16T23:41:53.203Z,15.00
2023-05-16T23:44:21.626Z,15.10
2023-05-16T23:46:50.063Z,15.00
2023-05-16T23:49:18.424Z,15.00
2023-05-16T23:51:57.600Z,15.00
2023-05-16T23:54:26.724Z,15.00
2023-05-16T23:56:55.174Z,15.00
2023-05-16T23:59:23.572Z,15.00
